createdAt,value
2023-04-12T00:00:54.492Z,5.32
2023-04-12T00:03:27.059Z,5.10
2023-04-12T00:05:57.917Z,5.60
2023-04-12T00:08:34.604Z,5.07
2023-04-12T00:11:06.143Z,5.40
2023-04-12T00:13:37.765Z,4.97
2023-04-12T00:16:09.347Z,5.38
2023-04-12T00:21:11.949Z,6.90
2023-04-12T00:23:43.202Z,7.68
2023-04-12T00:26:14.138Z,7.85
2023-04-12T00:28:48.406Z,8.05
2023-04-12T00:31:19.161Z,6.55
2023-04-12T00:33:50.236Z,5.50
2023-04-12T00:36:20.628Z,5.90
2023-04-12T00:38:51.106Z,6.05
2023-04-12T00:41:21.143Z,5.40
2023-04-12T00:43:51.234Z,5.78
2023-04-12T00:46:22.053Z,5.97
2023-04-12T00:48:54.894Z,6.05
2023-04-12T00:51:26.671Z,5.88
2023-04-12T00:54:00.997Z,6.20
2023-04-12T00:56:33.473Z,6.07
2023-04-12T00:59:03.686Z,6.15
2023-04-12T01:01:34.293Z,6.38
2023-04-12T01:04:05.719Z,6.43
2023-04-12T01:07:05.549Z,7.82
2023-04-12T01:09:46.141Z,6.95
2023-04-12T01:12:31.695Z,7.85
2023-04-12T01:15:13.399Z,7.10
2023-04-12T01:17:53.979Z,6.57
2023-04-12T01:20:29.948Z,6.22
2023-04-12T01:23:26.751Z,6.10
2023-04-12T01:26:11.767Z,6.55
2023-04-12T01:28:45.856Z,6.78
2023-04-12T01:31:16.830Z,6.30
2023-04-12T01:33:48.893Z,5.72
2023-04-12T01:36:24.294Z,6.10
2023-04-12T01:38:56.074Z,6.43
2023-04-12T01:41:26.370Z,7.43
2023-04-12T01:43:57.028Z,7.55
2023-04-12T01:46:27.424Z,7.45
2023-04-12T01:48:58.138Z,7.15
2023-04-12T01:51:55.924Z,6.85
2023-04-12T01:54:40.418Z,7.45
2023-04-12T01:57:12.423Z,7.15
2023-04-12T02:02:16.397Z,6.97
2023-04-12T02:04:48.492Z,7.07
2023-04-12T02:07:22.401Z,6.50
2023-04-12T02:09:52.907Z,6.20
2023-04-12T02:12:24.718Z,5.97
2023-04-12T02:14:55.142Z,6.88
2023-04-12T02:17:25.725Z,5.82
2023-04-12T02:19:56.413Z,6.85
2023-04-12T02:22:26.766Z,6.10
2023-04-12T02:24:57.206Z,6.03
2023-04-12T02:27:27.436Z,6.38
2023-04-12T02:29:59.780Z,7.05
2023-04-12T02:32:32.031Z,9.05
2023-04-12T02:35:04.627Z,7.90
2023-04-12T02:37:34.786Z,7.50
2023-04-12T02:40:07.757Z,7.80
2023-04-12T02:42:39.361Z,7.18
2023-04-12T02:45:12.479Z,8.02
2023-04-12T02:47:43.647Z,7.70
2023-04-12T02:50:14.870Z,7.60
2023-04-12T02:52:54.859Z,6.20
2023-04-12T02:55:26.830Z,7.20
2023-04-12T02:57:56.924Z,5.90
2023-04-12T03:00:28.712Z,7.30
2023-04-12T03:03:04.994Z,7.00
2023-04-12T03:05:35.538Z,6.70
2023-04-12T03:08:05.706Z,5.68
2023-04-12T03:10:53.593Z,7.07
2023-04-12T03:13:24.530Z,7.45
2023-04-12T03:16:00.323Z,7.05
2023-04-12T03:18:36.705Z,6.88
2023-04-12T03:21:07.410Z,7.38
2023-04-12T03:23:37.519Z,6.90
2023-04-12T03:26:21.459Z,7.47
2023-04-12T03:29:02.582Z,7.70
2023-04-12T03:31:35.137Z,7.45
2023-04-12T03:34:09.420Z,7.57
2023-04-12T03:36:44.400Z,7.35
2023-04-12T03:39:23.376Z,7.70
2023-04-12T03:41:54.834Z,6.53
2023-04-12T03:44:30.456Z,7.50
2023-04-12T03:47:02.364Z,7.45
2023-04-12T03:49:39.622Z,7.55
2023-04-12T03:52:15.665Z,8.70
2023-04-12T03:54:47.852Z,7.60
2023-04-12T03:57:27.216Z,7.82
2023-04-12T03:59:57.254Z,8.30
2023-04-12T04:02:32.895Z,7.70
2023-04-12T04:05:05.152Z,8.23
2023-04-12T04:07:35.587Z,7.53
2023-04-12T04:10:06.873Z,6.57
2023-04-12T04:12:41.115Z,7.57
2023-04-12T04:15:16.558Z,7.18
2023-04-12T04:17:49.358Z,7.30
2023-04-12T04:20:22.284Z,8.77
2023-04-12T04:22:54.614Z,7.80
2023-04-12T04:25:31.027Z,7.60
2023-04-12T04:28:05.076Z,7.45
2023-04-12T04:30:39.951Z,7.40
2023-04-12T04:33:19.762Z,7.90
2023-04-12T04:35:50.257Z,7.18
2023-04-12T04:38:27.390Z,7.47
2023-04-12T04:41:06.560Z,7.85
2023-04-12T04:43:49.895Z,6.90
2023-04-12T04:46:24.902Z,8.32
2023-04-12T04:48:56.530Z,8.45
2023-04-12T04:51:27.049Z,7.93
2023-04-12T04:53:58.979Z,8.77
2023-04-12T04:56:29.303Z,8.48
2023-04-12T04:59:00.164Z,7.35
2023-04-12T05:01:33.117Z,7.90
2023-04-12T05:04:06.009Z,8.00
2023-04-12T05:06:36.472Z,7.57
2023-04-12T05:09:08.715Z,8.23
2023-04-12T05:11:44.859Z,8.70
2023-04-12T05:14:16.028Z,8.68
2023-04-12T05:16:46.169Z,8.20
2023-04-12T05:19:16.689Z,8.63
2023-04-12T05:21:46.804Z,7.40
2023-04-12T05:24:17.442Z,8.52
2023-04-12T05:26:48.400Z,8.07
2023-04-12T05:29:18.839Z,6.97
2023-04-12T05:31:49.254Z,7.32
2023-04-12T05:34:22.693Z,7.47
2023-04-12T05:36:55.991Z,6.95
2023-04-12T05:39:28.762Z,7.30
2023-04-12T05:41:58.979Z,7.10
2023-04-12T05:44:29.792Z,7.60
2023-04-12T05:46:59.978Z,8.05
2023-04-12T05:49:33.787Z,7.82
2023-04-12T05:52:08.405Z,7.75
2023-04-12T05:54:40.373Z,8.98
2023-04-12T05:57:15.110Z,8.88
2023-04-12T05:59:45.810Z,9.23
2023-04-12T06:02:15.935Z,10.25
2023-04-12T06:04:50.103Z,8.95
2023-04-12T06:07:22.339Z,8.90
2023-04-12T06:09:52.825Z,7.72
2023-04-12T06:12:25.246Z,7.63
2023-04-12T06:14:55.598Z,7.13
2023-04-12T06:17:26.069Z,6.50
2023-04-12T06:19:56.598Z,6.68
2023-04-12T06:22:27.127Z,4.60
2023-04-12T06:24:57.622Z,5.57
2023-04-12T06:27:28.591Z,5.85
2023-04-12T06:29:59.375Z,6.38
2023-04-12T06:32:29.899Z,5.80
2023-04-12T06:35:03.045Z,6.13
2023-04-12T06:37:33.187Z,6.28
2023-04-12T06:40:03.627Z,6.70
2023-04-12T06:42:33.628Z,6.60
2023-04-12T06:45:04.019Z,7.00
2023-04-12T06:47:34.480Z,6.55
2023-04-12T06:50:05.154Z,6.40
2023-04-12T06:52:35.232Z,6.28
2023-04-12T06:55:06.072Z,6.47
2023-04-12T06:57:36.125Z,6.15
2023-04-12T07:00:07.057Z,6.78
2023-04-12T07:02:37.247Z,6.53
2023-04-12T07:05:08.172Z,6.38
2023-04-12T07:07:38.218Z,6.55
2023-04-12T07:10:09.465Z,6.32
2023-04-12T07:12:39.504Z,6.60
2023-04-12T07:15:10.913Z,6.80
2023-04-12T07:17:40.963Z,7.78
2023-04-12T07:20:12.345Z,7.75
2023-04-12T07:22:42.417Z,7.30
2023-04-12T07:25:12.269Z,9.05
2023-04-12T07:27:42.719Z,8.27
2023-04-12T07:30:13.190Z,7.45
2023-04-12T07:32:43.730Z,8.00
2023-04-12T07:35:13.755Z,7.32
2023-04-12T07:37:44.167Z,7.32
2023-04-12T07:40:14.196Z,8.07
2023-04-12T07:42:44.632Z,7.20
2023-04-12T07:45:14.648Z,7.18
2023-04-12T07:47:45.144Z,6.18
2023-04-12T07:50:16.653Z,6.28
2023-04-12T07:52:47.176Z,6.50
2023-04-12T07:55:17.297Z,7.05
2023-04-12T07:57:47.898Z,6.93
2023-04-12T08:00:19.246Z,6.72
2023-04-12T08:02:49.806Z,6.18
2023-04-12T08:05:19.985Z,7.00
2023-04-12T08:07:50.390Z,6.78
2023-04-12T08:10:20.344Z,7.15
2023-04-12T08:12:50.859Z,7.82
2023-04-12T08:15:20.932Z,7.05
2023-04-12T08:17:51.466Z,7.40
2023-04-12T08:20:21.611Z,7.68
2023-04-12T08:22:53.333Z,6.88
2023-04-12T08:25:23.627Z,6.93
2023-04-12T08:27:54.043Z,7.68
2023-04-12T08:30:27.905Z,7.43
2023-04-12T08:32:58.440Z,7.70
2023-04-12T08:35:28.545Z,7.82
2023-04-12T08:37:58.406Z,8.48
2023-04-12T08:40:28.974Z,7.60
2023-04-12T08:43:02.369Z,6.97
2023-04-12T08:45:35.904Z,8.02
2023-04-12T08:48:08.955Z,7.28
2023-04-12T08:50:39.365Z,6.63
2023-04-12T08:53:13.161Z,6.40
2023-04-12T08:55:47.729Z,6.53
2023-04-12T08:58:18.579Z,6.53
2023-04-12T09:00:49.449Z,6.45
2023-04-12T09:03:20.177Z,6.20
2023-04-12T09:05:50.327Z,6.28
2023-04-12T09:08:20.785Z,6.85
2023-04-12T09:10:50.822Z,6.53
2023-04-12T09:13:34.220Z,6.22
2023-04-12T09:16:05.021Z,5.97
2023-04-12T09:18:51.272Z,6.43
2023-04-12T09:21:21.339Z,7.00
2023-04-12T09:24:14.017Z,7.57
2023-04-12T09:26:44.501Z,7.22
2023-04-12T09:29:26.559Z,7.68
2023-04-12T09:31:58.575Z,6.78
2023-04-12T09:34:29.290Z,7.82
2023-04-12T09:37:00.323Z,6.30
2023-04-12T09:39:38.773Z,8.02
2023-04-12T09:42:29.235Z,7.47
2023-04-12T09:47:42.638Z,5.75
2023-04-12T09:50:30.882Z,7.55
2023-04-12T09:53:03.444Z,7.30
2023-04-12T09:55:34.041Z,6.90
2023-04-12T09:58:06.008Z,7.47
2023-04-12T10:00:38.077Z,7.20
2023-04-12T10:03:08.390Z,6.53
2023-04-12T10:05:41.566Z,6.78
2023-04-12T10:08:14.549Z,5.43
2023-04-12T10:10:47.742Z,5.72
2023-04-12T10:13:19.163Z,5.70
2023-04-12T10:15:52.314Z,5.88
2023-04-12T10:18:23.886Z,6.35
2023-04-12T10:20:54.562Z,6.20
2023-04-12T10:23:24.646Z,5.95
2023-04-12T10:25:58.233Z,5.55
2023-04-12T10:28:29.161Z,6.40
2023-04-12T10:31:00.139Z,5.63
2023-04-12T10:33:32.685Z,5.53
2023-04-12T10:36:12.196Z,5.13
2023-04-12T10:38:49.341Z,5.00
2023-04-12T10:43:53.210Z,4.72
2023-04-12T10:46:40.636Z,4.60
2023-04-12T10:49:12.188Z,5.13
2023-04-12T10:52:01.435Z,4.60
2023-04-12T10:54:32.165Z,4.40
2023-04-12T10:57:03.985Z,4.50
2023-04-12T10:59:58.355Z,4.72
2023-04-12T11:02:28.907Z,4.32
2023-04-12T11:05:11.533Z,4.38
2023-04-12T11:07:55.673Z,4.90
2023-04-12T11:10:47.697Z,4.78
2023-04-12T11:13:24.025Z,4.70
2023-04-12T11:16:04.600Z,4.03
2023-04-12T11:18:38.103Z,4.00
2023-04-12T11:21:08.906Z,4.55
2023-04-12T11:23:41.114Z,3.67
2023-04-12T11:26:12.112Z,4.60
2023-04-12T11:28:42.648Z,3.88
2023-04-12T11:31:13.121Z,3.55
2023-04-12T11:33:43.571Z,3.70
2023-04-12T11:36:14.647Z,3.50
2023-04-12T11:38:47.221Z,3.47
2023-04-12T11:41:19.496Z,3.70
2023-04-12T11:43:50.544Z,3.45
2023-04-12T11:46:20.849Z,3.63
2023-04-12T11:48:52.136Z,3.53
2023-04-12T11:51:25.829Z,3.20
2023-04-12T11:53:58.033Z,4.07
2023-04-12T11:56:28.720Z,4.38
2023-04-12T11:59:00.234Z,3.97
2023-04-12T12:01:31.100Z,4.03
2023-04-12T12:04:02.364Z,3.80
2023-04-12T12:06:33.650Z,3.50
2023-04-12T12:09:04.520Z,4.32
2023-04-12T12:11:34.738Z,4.18
2023-04-12T12:14:05.743Z,3.72
2023-04-12T12:16:37.090Z,4.07
2023-04-12T12:21:36.910Z,3.97
2023-04-12T12:24:07.094Z,4.10
2023-04-12T12:26:38.236Z,4.03
2023-04-12T12:29:10.366Z,4.15
2023-04-12T12:31:51.059Z,3.90
2023-04-12T12:34:21.296Z,4.13
2023-04-12T12:36:57.759Z,5.63
2023-04-12T12:39:28.396Z,5.55
2023-04-12T12:41:58.505Z,4.80
2023-04-12T12:44:28.936Z,3.97
2023-04-12T12:47:10.291Z,3.30
2023-04-12T12:49:44.521Z,3.25
2023-04-12T12:52:16.483Z,2.85
2023-04-12T12:54:48.204Z,2.83
2023-04-12T12:57:18.204Z,2.42
2023-04-12T12:59:48.763Z,1.90
2023-04-12T13:02:20.926Z,2.40
2023-04-12T13:04:52.030Z,1.90
2023-04-12T13:07:22.212Z,2.72
2023-04-12T13:09:52.778Z,2.13
2023-04-12T13:12:23.189Z,1.98
2023-04-12T13:15:00.354Z,2.17
2023-04-12T13:17:43.297Z,2.33
2023-04-12T13:20:14.291Z,1.95
2023-04-12T13:22:44.355Z,2.00
2023-04-12T13:25:15.110Z,2.38
2023-04-12T13:27:45.103Z,1.83
2023-04-12T13:30:15.684Z,2.00
2023-04-12T13:32:45.875Z,2.90
2023-04-12T13:35:16.541Z,3.08
2023-04-12T13:37:46.827Z,2.47
2023-04-12T13:40:17.358Z,2.38
2023-04-12T13:42:47.474Z,2.60
2023-04-12T13:45:17.929Z,2.30
2023-04-12T13:47:48.014Z,1.98
2023-04-12T13:50:18.473Z,2.33
2023-04-12T13:52:48.252Z,2.40
2023-04-12T13:55:18.715Z,1.83
2023-04-12T13:57:48.769Z,2.08
2023-04-12T14:00:19.944Z,2.38
2023-04-12T14:02:50.042Z,2.20
2023-04-12T14:05:20.705Z,3.03
2023-04-12T14:07:51.950Z,2.97
2023-04-12T14:10:22.379Z,2.67
2023-04-12T14:12:52.338Z,2.83
2023-04-12T14:15:22.937Z,3.00
2023-04-12T14:17:52.987Z,3.33
2023-04-12T14:20:24.976Z,3.38
2023-04-12T14:22:55.037Z,2.47
2023-04-12T14:25:25.539Z,2.03
2023-04-12T14:27:55.589Z,2.47
2023-04-12T14:30:26.093Z,2.58
2023-04-12T14:32:56.715Z,2.20
2023-04-12T14:35:27.010Z,2.65
2023-04-12T14:37:57.640Z,2.40
2023-04-12T14:40:27.784Z,2.20
2023-04-12T14:42:58.164Z,2.58
2023-04-12T14:45:28.680Z,2.55
2023-04-12T14:47:59.141Z,2.40
2023-04-12T14:50:29.191Z,2.90
2023-04-12T14:52:59.552Z,2.78
2023-04-12T14:55:30.098Z,2.20
2023-04-12T14:58:01.106Z,2.30
2023-04-12T15:00:32.107Z,2.40
2023-04-12T15:05:33.076Z,2.42
2023-04-12T15:08:03.712Z,1.90
2023-04-12T15:10:33.773Z,1.52
2023-04-12T15:13:03.580Z,1.30
2023-04-12T15:15:34.007Z,2.42
2023-04-12T15:18:07.098Z,2.30
2023-04-12T15:20:38.178Z,1.65
2023-04-12T15:23:08.298Z,2.17
2023-04-12T15:25:38.681Z,1.60
2023-04-12T15:28:08.696Z,1.63
2023-04-12T15:30:39.398Z,1.65
2023-04-12T15:33:09.391Z,2.40
2023-04-12T15:35:39.858Z,1.70
2023-04-12T15:38:15.105Z,2.00
2023-04-12T15:40:47.796Z,1.50
2023-04-12T15:43:17.974Z,1.85
2023-04-12T15:45:49.200Z,1.73
2023-04-12T15:48:19.191Z,1.48
2023-04-12T15:50:52.466Z,1.35
2023-04-12T15:53:28.526Z,1.92
2023-04-12T15:55:59.051Z,1.50
2023-04-12T15:58:29.149Z,1.48
2023-04-12T16:00:59.655Z,1.10
2023-04-12T16:03:29.950Z,1.20
2023-04-12T16:06:00.502Z,1.25
2023-04-12T16:08:30.511Z,1.88
2023-04-12T16:11:00.954Z,1.20
2023-04-12T16:13:30.711Z,1.05
2023-04-12T16:16:01.218Z,1.85
2023-04-12T16:18:32.081Z,1.27
2023-04-12T16:21:02.611Z,1.50
2023-04-12T16:23:33.667Z,0.95
2023-04-12T16:28:34.746Z,1.60
2023-04-12T16:31:06.143Z,1.83
2023-04-12T16:33:36.446Z,1.83
2023-04-12T16:36:07.127Z,1.80
2023-04-12T16:38:37.214Z,1.23
2023-04-12T16:41:08.396Z,1.60
2023-04-12T16:43:38.513Z,1.38
2023-04-12T16:46:09.261Z,1.70
2023-04-12T16:48:42.704Z,1.20
2023-04-12T16:51:13.130Z,1.30
2023-04-12T16:53:43.077Z,1.40
2023-04-12T16:56:13.569Z,1.17
2023-04-12T16:58:43.670Z,1.85
2023-04-12T17:01:17.779Z,1.25
2023-04-12T17:03:48.649Z,1.23
2023-04-12T17:06:20.786Z,1.25
2023-04-12T17:08:50.803Z,1.27
2023-04-12T17:11:21.293Z,1.35
2023-04-12T17:13:51.745Z,1.50
2023-04-12T17:16:22.493Z,1.15
2023-04-12T17:18:52.486Z,1.33
2023-04-12T17:21:23.540Z,1.33
2023-04-12T17:23:54.665Z,1.20
2023-04-12T17:26:27.573Z,1.50
2023-04-12T17:28:58.021Z,1.48
2023-04-12T17:31:28.980Z,1.48
2023-04-12T17:33:59.271Z,1.30
2023-04-12T17:36:32.668Z,1.85
2023-04-12T17:39:05.800Z,1.40
2023-04-12T17:41:36.421Z,1.40
2023-04-12T17:44:06.893Z,1.45
2023-04-12T17:46:37.698Z,1.30
2023-04-12T17:49:07.812Z,1.67
2023-04-12T17:51:38.293Z,2.10
2023-04-12T17:54:08.906Z,1.95
2023-04-12T17:56:39.796Z,2.50
2023-04-12T17:59:12.465Z,1.85
2023-04-12T18:01:44.257Z,2.40
2023-04-12T18:06:44.026Z,1.23
2023-04-12T18:09:14.631Z,1.48
2023-04-12T18:11:44.712Z,1.67
2023-04-12T18:14:15.495Z,1.50
2023-04-12T18:16:45.560Z,1.52
2023-04-12T18:19:19.695Z,1.83
2023-04-12T18:21:49.847Z,2.33
2023-04-12T18:24:20.368Z,1.92
2023-04-12T18:26:50.774Z,1.70
2023-04-12T18:29:21.182Z,1.80
2023-04-12T18:31:51.273Z,2.25
2023-04-12T18:34:22.104Z,2.58
2023-04-12T18:36:52.377Z,2.22
2023-04-12T18:39:23.307Z,1.90
2023-04-12T18:41:53.418Z,1.70
2023-04-12T18:44:23.264Z,1.73
2023-04-12T18:46:53.712Z,1.27
2023-04-12T18:49:23.811Z,1.48
2023-04-12T18:51:59.213Z,1.52
2023-04-12T18:54:30.079Z,2.22
2023-04-12T18:57:02.922Z,1.98
2023-04-12T18:59:33.168Z,1.60
2023-04-12T19:02:03.851Z,1.58
2023-04-12T19:04:38.086Z,3.58
2023-04-12T19:07:09.069Z,3.13
2023-04-12T19:09:39.128Z,3.15
2023-04-12T19:12:10.093Z,3.38
2023-04-12T19:14:40.132Z,3.72
2023-04-12T19:17:10.659Z,3.60
2023-04-12T19:19:40.638Z,3.75
2023-04-12T19:22:11.127Z,3.70
2023-04-12T19:24:41.068Z,3.80
2023-04-12T19:27:11.585Z,3.92
2023-04-12T19:29:41.561Z,5.38
2023-04-12T19:32:15.207Z,4.35
2023-04-12T19:34:45.213Z,4.13
2023-04-12T19:37:15.702Z,3.80
2023-04-12T19:39:45.860Z,3.95
2023-04-12T19:42:16.979Z,4.20
2023-04-12T19:44:47.031Z,3.92
2023-04-12T19:47:17.598Z,4.30
2023-04-12T19:49:48.584Z,3.97
2023-04-12T19:52:22.414Z,4.40
2023-04-12T19:54:53.718Z,4.30
2023-04-12T19:57:25.481Z,4.18
2023-04-12T19:59:56.519Z,4.80
2023-04-12T20:02:27.243Z,4.28
2023-04-12T20:04:57.721Z,4.07
2023-04-12T20:07:28.208Z,4.35
2023-04-12T20:09:59.915Z,4.05
2023-04-12T20:12:30.561Z,4.25
2023-04-12T20:15:01.844Z,4.32
2023-04-12T20:17:34.006Z,4.38
2023-04-12T20:20:07.972Z,4.68
2023-04-12T20:22:40.549Z,4.10
2023-04-12T20:25:14.306Z,4.47
2023-04-12T20:27:52.685Z,4.72
2023-04-12T20:30:23.793Z,4.70
2023-04-12T20:32:56.024Z,5.72
2023-04-12T20:35:26.815Z,6.20
2023-04-12T20:37:57.654Z,5.72
2023-04-12T20:40:30.680Z,6.10
2023-04-12T20:43:02.151Z,5.68
2023-04-12T20:45:32.191Z,5.18
2023-04-12T20:48:02.714Z,5.40
2023-04-12T20:50:34.097Z,5.30
2023-04-12T20:53:05.020Z,4.88
2023-04-12T20:55:35.933Z,4.68
2023-04-12T20:58:08.578Z,6.05
2023-04-12T21:00:39.118Z,5.00
2023-04-12T21:03:11.926Z,4.93
2023-04-12T21:05:42.393Z,4.40
2023-04-12T21:08:13.065Z,4.82
2023-04-12T21:10:43.926Z,5.15
2023-04-12T21:13:15.349Z,5.57
2023-04-12T21:15:45.345Z,5.32
2023-04-12T21:18:16.024Z,4.97
2023-04-12T21:20:45.988Z,4.35
2023-04-12T21:23:20.082Z,5.10
2023-04-12T21:25:50.817Z,5.50
2023-04-12T21:28:21.972Z,6.18
2023-04-12T21:30:56.094Z,5.72
2023-04-12T21:33:26.791Z,6.20
2023-04-12T21:35:57.622Z,5.35
2023-04-12T21:38:28.278Z,5.55
2023-04-12T21:40:59.899Z,5.63
2023-04-12T21:45:59.674Z,5.75
2023-04-12T21:48:32.660Z,5.45
2023-04-12T21:51:03.149Z,5.95
2023-04-12T21:53:33.156Z,6.07
2023-04-12T21:56:03.671Z,5.10
2023-04-12T21:58:34.576Z,5.03
2023-04-12T22:01:05.075Z,5.35
2023-04-12T22:03:35.170Z,5.93
2023-04-12T22:06:05.868Z,6.07
2023-04-12T22:08:36.041Z,6.05
2023-04-12T22:11:06.594Z,5.97
2023-04-12T22:13:42.486Z,6.57
2023-04-12T22:16:17.852Z,6.45
2023-04-12T22:18:48.065Z,5.65
2023-04-12T22:21:18.897Z,6.57
2023-04-12T22:23:49.011Z,7.07
2023-04-12T22:26:19.426Z,6.85
2023-04-12T22:28:50.934Z,6.28
2023-04-12T22:31:23.842Z,6.68
2023-04-12T22:33:56.267Z,8.00
2023-04-12T22:36:29.304Z,7.15
2023-04-12T22:38:59.647Z,7.60
2023-04-12T22:41:34.068Z,7.03
2023-04-12T22:44:04.166Z,6.35
2023-04-12T22:46:34.838Z,7.00
2023-04-12T22:49:05.881Z,7.05
2023-04-12T22:51:36.621Z,7.00
2023-04-12T22:54:09.786Z,7.43
2023-04-12T22:56:49.245Z,6.93
2023-04-12T22:59:24.236Z,8.35
2023-04-12T23:01:55.104Z,6.90
2023-04-12T23:04:25.231Z,7.63
2023-04-12T23:06:58.766Z,7.75
2023-04-12T23:09:29.908Z,7.60
2023-04-12T23:12:00.039Z,6.43
2023-04-12T23:14:31.105Z,5.90
2023-04-12T23:17:02.184Z,6.10
2023-04-12T23:19:34.313Z,5.90
2023-04-12T23:22:04.898Z,6.40
2023-04-12T23:24:35.516Z,5.75
2023-04-12T23:27:05.638Z,4.85
2023-04-12T23:29:36.214Z,6.07
2023-04-12T23:32:06.383Z,5.65
2023-04-12T23:34:36.969Z,6.43
2023-04-12T23:37:06.945Z,6.45
2023-04-12T23:39:37.359Z,5.93
2023-04-12T23:42:07.265Z,5.55
2023-04-12T23:44:38.080Z,5.75
2023-04-12T23:47:08.182Z,6.28
2023-04-12T23:49:38.633Z,5.43
2023-04-12T23:52:08.570Z,6.15
2023-04-12T23:54:38.995Z,6.00
2023-04-12T23:57:09.308Z,6.25
2023-04-12T23:59:40.074Z,5.30
